Time;durP1;ratioP1;P1;durP2;ratioP2;P2;SDS_P1;SDS_P2;PMS_P1;PMS_P2;Temp;Humidity;BMP_temperature;BMP_pressure;BME280_temperature;BME280_humidity;BME280_pressure;Samples;Min_cycle;Max_cycle;Signal;HPM_P1;HPM_P2
2022/04/06 00:00:20;;;;;;;15.85;8.95;;;7.30;99.90;;;;;;5036387;28;20029;-76
2022/04/06 00:02:46;;;;;;;16.50;8.52;;;7.40;99.90;;;;;;5037733;28;20524;-76
2022/04/06 00:05:12;;;;;;;12.23;7.35;;;7.50;99.90;;;;;;5067595;28;20021;-76
2022/04/06 00:07:39;;;;;;;13.38;7.55;;;7.50;99.90;;;;;;5047101;28;20496;-76
2022/04/06 00:10:05;;;;;;;15.68;8.05;;;7.50;99.90;;;;;;5047176;28;20112;-75
2022/04/06 00:12:31;;;;;;;14.00;7.95;;;7.50;99.90;;;;;;5047442;28;20519;-76
2022/04/06 00:14:57;;;;;;;14.18;8.25;;;7.60;99.90;;;;;;5048957;28;20041;-75
2022/04/06 00:17:22;;;;;;;18.08;8.98;;;7.70;99.90;;;;;;5060708;28;20028;-76
2022/04/06 00:19:48;;;;;;;14.13;8.35;;;7.90;99.90;;;;;;5047257;28;20121;-76
2022/04/06 00:22:13;;;;;;;14.88;7.72;;;7.80;99.90;;;;;;5046217;28;20031;-75
2022/04/06 00:24:39;;;;;;;14.85;8.32;;;7.80;99.90;;;;;;5037542;28;20029;-75
2022/04/06 00:27:05;;;;;;;15.38;7.80;;;7.80;99.90;;;;;;5054646;28;20103;-75
2022/04/06 00:29:31;;;;;;;13.20;7.93;;;7.80;99.90;;;;;;5050110;28;20036;-76
2022/04/06 00:31:56;;;;;;;16.08;8.55;;;7.80;99.90;;;;;;5062513;28;20044;-75
2022/04/06 00:35:28;;;;;;;14.88;7.68;;;7.90;99.90;;;;;;5044623;28;20025;-76
2022/04/06 00:37:08;;;;;;;14.18;7.63;;;7.90;99.90;;;;;;5047806;28;20020;-75
2022/04/06 00:39:33;;;;;;;18.20;8.70;;;7.90;99.90;;;;;;5065494;28;20040;-75
2022/04/06 00:41:59;;;;;;;13.18;7.78;;;7.90;99.90;;;;;;5063497;28;20107;-75
2022/04/06 00:44:27;;;;;;;14.30;8.55;;;7.90;99.90;;;;;;5046051;28;20082;-75
2022/04/06 00:46:53;;;;;;;17.40;9.38;;;7.90;99.90;;;;;;5057407;28;20025;-75
2022/04/06 00:49:18;;;;;;;16.40;9.30;;;7.90;99.90;;;;;;5081499;28;20408;-75
2022/04/06 00:51:46;;;;;;;13.70;8.73;;;8.00;99.90;;;;;;5052045;28;20025;-75
2022/04/06 00:54:15;;;;;;;16.52;8.75;;;8.00;99.90;;;;;;5035150;28;20040;-76
2022/04/06 00:56:42;;;;;;;17.80;9.10;;;8.00;99.90;;;;;;5063275;28;20082;-76
2022/04/06 00:59:08;;;;;;;19.80;8.82;;;8.00;99.90;;;;;;5061304;28;20593;-75
2022/04/06 01:01:34;;;;;;;15.43;8.00;;;8.10;99.90;;;;;;5066155;28;20021;-75
2022/04/06 01:04:00;;;;;;;16.08;7.85;;;8.10;99.90;;;;;;5066199;28;20036;-75
2022/04/06 01:06:26;;;;;;;14.25;8.45;;;8.10;99.90;;;;;;5047674;28;20029;-75
2022/04/06 01:08:53;;;;;;;13.93;7.75;;;8.20;99.90;;;;;;5058439;28;20069;-75
2022/04/06 01:11:20;;;;;;;13.77;7.22;;;8.20;99.90;;;;;;5050295;28;20462;-76
2022/04/06 01:13:47;;;;;;;13.15;7.88;;;8.20;99.90;;;;;;5065050;28;20032;-75
2022/04/06 01:16:13;;;;;;;14.32;7.22;;;8.20;99.90;;;;;;5050796;28;20468;-75
2022/04/06 01:18:40;;;;;;;13.45;7.45;;;8.10;99.90;;;;;;5040977;28;20107;-76
2022/04/06 01:21:06;;;;;;;12.98;6.75;;;8.20;99.90;;;;;;5058803;28;20480;-75
2022/04/06 01:23:32;;;;;;;11.13;6.70;;;8.20;99.90;;;;;;5045074;28;20016;-75
2022/04/06 01:25:58;;;;;;;12.88;7.28;;;8.10;99.90;;;;;;5050095;28;20054;-75
2022/04/06 01:28:24;;;;;;;12.00;7.03;;;8.10;99.90;;;;;;5067723;28;20080;-76
2022/04/06 01:30:50;;;;;;;11.23;7.18;;;8.20;99.90;;;;;;5050194;28;20033;-76
2022/04/06 01:33:16;;;;;;;11.18;6.68;;;8.20;99.90;;;;;;5050318;28;20031;-75
2022/04/06 01:35:42;;;;;;;9.40;6.20;;;8.20;99.90;;;;;;5067169;28;20032;-75
2022/04/06 01:38:09;;;;;;;11.52;6.75;;;8.20;99.90;;;;;;5045059;28;20122;-76
2022/04/06 01:40:35;;;;;;;11.50;6.53;;;8.10;99.90;;;;;;5048317;28;20053;-77
2022/04/06 01:43:01;;;;;;;11.30;6.60;;;8.10;99.90;;;;;;5049986;28;20028;-75
2022/04/06 01:45:27;;;;;;;14.15;6.57;;;8.20;99.90;;;;;;5051061;28;20029;-75
2022/04/06 01:47:54;;;;;;;10.73;6.38;;;8.20;99.90;;;;;;5057884;28;20029;-76
2022/04/06 01:53:04;;;;;;;12.05;6.43;;;8.20;99.90;;;;;;5052349;28;20021;-75
2022/04/06 01:55:29;;;;;;;10.40;6.50;;;8.20;99.90;;;;;;5065888;28;20511;-76
2022/04/06 01:57:56;;;;;;;12.68;6.50;;;8.20;99.90;;;;;;5050890;28;20036;-75
2022/04/06 02:00:22;;;;;;;11.60;6.38;;;8.20;99.90;;;;;;5050770;28;20041;-76
2022/04/06 02:02:52;;;;;;;10.00;5.38;;;8.20;99.90;;;;;;5059246;28;20051;-76
2022/04/06 02:05:19;;;;;;;7.78;4.40;;;8.20;99.90;;;;;;5048693;28;20040;-76
2022/04/06 02:07:46;;;;;;;8.60;4.88;;;8.10;99.90;;;;;;5032814;28;20028;-76
2022/04/06 02:10:13;;;;;;;9.88;4.55;;;8.20;99.90;;;;;;5065792;28;20427;-75
2022/04/06 02:12:40;;;;;;;6.25;4.05;;;8.20;99.90;;;;;;5070236;28;20032;-75
2022/04/06 02:15:08;;;;;;;6.35;4.32;;;8.20;99.90;;;;;;5047861;28;20511;-75
2022/04/06 02:17:35;;;;;;;8.68;4.20;;;8.20;99.90;;;;;;5035759;28;20631;-75
2022/04/06 02:20:01;;;;;;;6.53;4.10;;;8.20;99.90;;;;;;5032027;28;20028;-74
2022/04/06 02:22:26;;;;;;;5.88;3.88;;;8.20;99.90;;;;;;5049080;28;20035;-75
2022/04/06 02:24:52;;;;;;;8.18;4.32;;;8.20;99.90;;;;;;5050766;28;20104;-75
2022/04/06 02:27:18;;;;;;;8.23;4.20;;;8.10;99.90;;;;;;5030765;28;20119;-75
2022/04/06 02:29:44;;;;;;;7.82;4.90;;;8.00;99.90;;;;;;5049882;28;20438;-75
2022/04/06 02:32:10;;;;;;;10.13;4.28;;;8.10;99.90;;;;;;5049624;28;20581;-75
2022/04/06 02:34:36;;;;;;;8.32;4.63;;;8.10;99.90;;;;;;5064216;28;20024;-75
2022/04/06 02:37:02;;;;;;;10.95;5.28;;;8.00;99.90;;;;;;5049366;28;20086;-74
2022/04/06 02:39:29;;;;;;;11.77;5.43;;;8.00;99.90;;;;;;5066788;28;20028;-75
2022/04/06 02:41:54;;;;;;;11.43;5.75;;;8.10;99.90;;;;;;5065591;28;20043;-75
2022/04/06 02:44:20;;;;;;;11.48;5.75;;;8.10;99.90;;;;;;5041691;28;20024;-75
2022/04/06 02:46:47;;;;;;;9.90;5.75;;;8.10;99.90;;;;;;5046727;28;20044;-75
2022/04/06 02:49:14;;;;;;;13.27;6.20;;;8.20;99.90;;;;;;5056135;28;20024;-75
2022/04/06 02:51:40;;;;;;;9.45;6.13;;;8.20;99.90;;;;;;5039966;28;20052;-75
2022/04/06 02:54:06;;;;;;;13.80;6.78;;;8.10;99.90;;;;;;5049250;28;20055;-75
2022/04/06 02:56:32;;;;;;;12.88;7.35;;;8.00;99.90;;;;;;5047806;28;20045;-75
2022/04/06 02:58:57;;;;;;;15.52;7.32;;;8.10;99.90;;;;;;5044384;28;20575;-75
2022/04/06 03:01:23;;;;;;;16.15;7.65;;;8.10;99.90;;;;;;5063358;28;20082;-75
2022/04/06 03:03:49;;;;;;;13.80;8.07;;;8.00;99.90;;;;;;5054607;28;20512;-74
2022/04/06 03:06:16;;;;;;;13.52;8.00;;;8.00;99.90;;;;;;5080161;28;20036;-75
2022/04/06 03:08:43;;;;;;;16.85;8.50;;;8.00;99.90;;;;;;5048751;28;20122;-75
2022/04/06 03:11:08;;;;;;;14.45;9.23;;;8.00;99.90;;;;;;5066042;28;20500;-75
2022/04/06 03:13:34;;;;;;;15.77;9.60;;;8.10;99.90;;;;;;5041488;28;20085;-75
2022/04/06 03:16:00;;;;;;;17.67;9.98;;;8.10;99.90;;;;;;5033574;28;20070;-75
2022/04/06 03:18:25;;;;;;;17.60;10.80;;;8.00;99.90;;;;;;5041330;28;20025;-75
2022/04/06 03:20:51;;;;;;;18.00;10.63;;;8.20;99.90;;;;;;5063826;28;20398;-75
2022/04/06 03:23:17;;;;;;;17.67;11.02;;;8.20;99.90;;;;;;5061988;28;20024;-76
2022/04/06 03:25:43;;;;;;;20.35;10.55;;;8.10;99.90;;;;;;5064002;28;20029;-76
2022/04/06 03:28:09;;;;;;;19.85;11.63;;;8.10;99.90;;;;;;5053977;28;20017;-75
2022/04/06 03:30:36;;;;;;;23.42;11.63;;;8.20;99.90;;;;;;5048441;28;20031;-77
2022/04/06 03:33:02;;;;;;;23.38;12.10;;;8.20;99.90;;;;;;5049530;28;20028;-75
2022/04/06 03:35:29;;;;;;;24.10;12.43;;;8.20;99.90;;;;;;5048911;28;20048;-75
2022/04/06 03:37:55;;;;;;;20.70;11.18;;;8.30;99.90;;;;;;5052884;28;20040;-75
2022/04/06 03:40:21;;;;;;;22.92;12.38;;;8.20;99.90;;;;;;5057158;28;20127;-76
2022/04/06 03:42:47;;;;;;;26.13;13.75;;;8.20;99.90;;;;;;5066143;28;20464;-76
2022/04/06 03:45:12;;;;;;;25.02;13.75;;;8.20;99.90;;;;;;5065102;28;20436;-76
2022/04/06 03:47:41;;;;;;;26.92;14.07;;;8.30;99.90;;;;;;5036210;28;20040;-76
2022/04/06 03:50:07;;;;;;;31.38;13.85;;;8.20;99.90;;;;;;5044824;28;20048;-76
2022/04/06 03:52:32;;;;;;;24.55;13.68;;;8.20;99.90;;;;;;5040983;28;20029;-76
2022/04/06 03:54:58;;;;;;;33.00;15.10;;;8.20;99.90;;;;;;5041387;28;20103;-76
2022/04/06 03:57:25;;;;;;;27.45;14.88;;;8.20;99.90;;;;;;5066366;28;20481;-77
2022/04/06 03:59:52;;;;;;;28.05;14.73;;;8.30;99.90;;;;;;5046585;28;20465;-76
2022/04/06 04:02:17;;;;;;;31.90;15.57;;;8.30;99.90;;;;;;5061041;28;20404;-76
2022/04/06 04:04:43;;;;;;;34.33;16.13;;;8.30;99.90;;;;;;5063974;28;20094;-76
2022/04/06 04:07:09;;;;;;;32.05;16.38;;;8.30;99.90;;;;;;5059657;28;20024;-76
2022/04/06 04:09:35;;;;;;;30.23;16.35;;;8.30;99.90;;;;;;5047904;28;20695;-77
2022/04/06 04:12:02;;;;;;;30.73;15.57;;;8.30;99.90;;;;;;5059955;28;20067;-76
2022/04/06 04:14:31;;;;;;;34.30;16.73;;;8.20;99.90;;;;;;5045308;28;20060;-76
2022/04/06 04:16:58;;;;;;;34.78;16.95;;;8.20;99.90;;;;;;5043346;28;20120;-76
2022/04/06 04:19:27;;;;;;;34.30;15.80;;;8.30;99.90;;;;;;5026622;28;20113;-75
2022/04/06 04:21:53;;;;;;;35.35;17.15;;;8.30;99.90;;;;;;5064592;28;20031;-75
2022/04/06 04:24:19;;;;;;;39.30;18.67;;;8.30;99.90;;;;;;5055770;28;20559;-76
2022/04/06 04:26:45;;;;;;;36.05;19.17;;;8.40;99.90;;;;;;5069152;28;20024;-75
2022/04/06 04:29:11;;;;;;;44.45;21.35;;;8.30;99.90;;;;;;5050047;28;20112;-75
2022/04/06 04:31:37;;;;;;;43.25;20.10;;;8.30;99.90;;;;;;5064378;28;20099;-75
2022/04/06 04:34:03;;;;;;;38.65;21.77;;;8.40;99.90;;;;;;5068694;28;20400;-75
2022/04/06 04:36:29;;;;;;;42.67;21.73;;;8.40;99.90;;;;;;5041247;28;20823;-74
2022/04/06 04:38:56;;;;;;;50.75;24.15;;;8.40;99.90;;;;;;5050199;28;20028;-74
2022/04/06 04:41:22;;;;;;;43.97;23.85;;;8.30;99.90;;;;;;5064201;28;20023;-74
2022/04/06 04:43:50;;;;;;;47.30;23.83;;;8.40;99.90;;;;;;5061562;28;20067;-74
2022/04/06 04:46:17;;;;;;;54.75;26.35;;;8.30;99.90;;;;;;5048393;28;20494;-74
2022/04/06 04:48:43;;;;;;;46.10;26.02;;;8.30;99.90;;;;;;5054275;28;20025;-74
2022/04/06 04:51:08;;;;;;;50.38;25.63;;;8.30;99.90;;;;;;5066095;28;20032;-73
2022/04/06 04:53:34;;;;;;;60.00;27.75;;;8.30;99.90;;;;;;5048871;28;20020;-74
2022/04/06 04:56:00;;;;;;;51.08;26.30;;;8.30;99.90;;;;;;5066553;28;20610;-74
2022/04/06 04:58:27;;;;;;;55.72;29.63;;;8.40;99.90;;;;;;5062491;28;20507;-74
2022/04/06 05:00:56;;;;;;;55.42;29.98;;;8.40;99.90;;;;;;5034362;28;20037;-75
2022/04/06 05:03:22;;;;;;;53.95;27.65;;;8.40;99.90;;;;;;5039048;28;20123;-77
2022/04/06 05:05:53;;;;;;;55.53;30.17;;;8.30;99.90;;;;;;5034919;28;20170;-76
2022/04/06 05:08:23;;;;;;;62.72;32.28;;;8.40;99.90;;;;;;5050686;28;20028;-75
2022/04/06 05:10:49;;;;;;;53.47;30.83;;;8.40;99.90;;;;;;5057733;28;20044;-76
2022/04/06 05:13:17;;;;;;;68.22;33.33;;;8.40;99.90;;;;;;5030800;28;20029;-76
2022/04/06 05:15:44;;;;;;;65.57;34.28;;;8.40;99.90;;;;;;5048883;28;20036;-75
2022/04/06 05:18:10;;;;;;;66.55;33.75;;;8.40;99.90;;;;;;5050587;28;20098;-75
2022/04/06 05:20:36;;;;;;;61.80;33.00;;;8.40;99.90;;;;;;5048833;28;20032;-75
2022/04/06 05:23:02;;;;;;;63.88;33.70;;;8.50;99.90;;;;;;5063733;28;20040;-75
2022/04/06 05:25:27;;;;;;;60.63;31.73;;;8.50;99.90;;;;;;5049876;28;20025;-76
2022/04/06 05:27:55;;;;;;;55.58;32.25;;;8.40;99.90;;;;;;5068325;28;20028;-76
2022/04/06 05:30:24;;;;;;;70.82;33.42;;;8.50;99.90;;;;;;5051869;28;20139;-76
2022/04/06 05:32:53;;;;;;;66.53;33.33;;;8.50;99.90;;;;;;5043475;28;20032;-76
2022/04/06 05:35:20;;;;;;;66.90;33.05;;;8.40;99.90;;;;;;5064439;28;20591;-75
2022/04/06 05:37:46;;;;;;;65.05;33.50;;;8.40;99.90;;;;;;5064022;28;20064;-76
2022/04/06 05:40:14;;;;;;;69.80;33.45;;;8.50;99.90;;;;;;5049437;28;20024;-75
2022/04/06 05:42:41;;;;;;;65.90;31.45;;;8.50;99.90;;;;;;5046665;28;20083;-76
2022/04/06 05:45:07;;;;;;;67.07;30.60;;;8.50;99.90;;;;;;5047850;28;20051;-76
2022/04/06 05:47:34;;;;;;;55.70;26.13;;;8.60;99.90;;;;;;5042864;28;20100;-76
2022/04/06 05:49:59;;;;;;;51.45;24.50;;;8.70;99.90;;;;;;5049085;28;20499;-76
2022/04/06 05:52:27;;;;;;;50.03;25.15;;;8.80;99.90;;;;;;5063089;28;20039;-76
2022/04/06 05:54:52;;;;;;;44.30;24.70;;;8.80;99.90;;;;;;5042094;28;20055;-74
2022/04/06 05:57:21;;;;;;;41.65;22.50;;;8.80;99.90;;;;;;5034425;28;20029;-75
2022/04/06 05:59:47;;;;;;;52.38;23.98;;;8.70;99.90;;;;;;5041204;28;20036;-75
2022/04/06 06:02:13;;;;;;;51.85;24.20;;;8.60;99.90;;;;;;5051706;28;20024;-75
2022/04/06 06:04:39;;;;;;;48.70;23.05;;;8.60;99.90;;;;;;5062929;28;20024;-76
2022/04/06 06:07:05;;;;;;;50.92;24.23;;;8.70;99.90;;;;;;5048952;28;20027;-75
2022/04/06 06:09:32;;;;;;;44.55;22.08;;;8.70;99.90;;;;;;5066763;28;20111;-76
2022/04/06 06:11:58;;;;;;;48.40;20.65;;;8.70;99.90;;;;;;5079888;28;20025;-76
2022/04/06 06:14:24;;;;;;;43.38;20.30;;;8.70;99.90;;;;;;5031499;28;20029;-76
2022/04/06 06:16:50;;;;;;;43.53;19.80;;;8.70;99.90;;;;;;5048552;28;20563;-76
2022/04/06 06:19:16;;;;;;;39.13;18.33;;;8.60;99.90;;;;;;5060156;28;20036;-75
2022/04/06 06:21:42;;;;;;;40.08;20.23;;;8.70;99.90;;;;;;5061960;28;20032;-76
2022/04/06 06:24:08;;;;;;;33.35;17.15;;;8.70;99.90;;;;;;5064876;28;20180;-76
2022/04/06 06:26:35;;;;;;;36.55;17.35;;;8.80;99.90;;;;;;5043851;28;20147;-75
2022/04/06 06:29:02;;;;;;;31.58;15.57;;;8.80;99.90;;;;;;5051544;28;20082;-76
2022/04/06 06:31:30;;;;;;;35.17;16.35;;;8.80;99.90;;;;;;5063130;28;20029;-75
2022/04/06 06:33:59;;;;;;;34.47;16.08;;;8.80;99.90;;;;;;5059965;28;20401;-76
2022/04/06 06:36:25;;;;;;;35.97;15.05;;;8.70;99.90;;;;;;5041160;28;20131;-76
2022/04/06 06:38:52;;;;;;;35.35;16.55;;;8.90;99.90;;;;;;5053541;28;20035;-75
2022/04/06 06:41:19;;;;;;;35.50;15.13;;;8.80;99.90;;;;;;5051731;28;20036;-76
2022/04/06 06:43:48;;;;;;;31.38;15.15;;;8.80;99.90;;;;;;5047405;28;20024;-76
2022/04/06 06:46:15;;;;;;;35.90;16.80;;;8.80;99.90;;;;;;5067263;28;20147;-77
2022/04/06 06:48:41;;;;;;;33.15;15.68;;;8.90;99.90;;;;;;5072128;28;20055;-76
2022/04/06 06:51:07;;;;;;;32.42;14.60;;;8.90;99.90;;;;;;5056810;28;20029;-76
2022/04/06 06:53:33;;;;;;;33.95;15.60;;;8.90;99.90;;;;;;5074009;28;20032;-76
2022/04/06 06:55:59;;;;;;;32.83;15.68;;;8.90;99.90;;;;;;5052231;28;20055;-75
2022/04/06 06:58:25;;;;;;;37.70;17.13;;;8.90;99.90;;;;;;5047269;28;20661;-76
2022/04/06 07:00:51;;;;;;;31.67;16.50;;;8.90;99.90;;;;;;5045612;28;20025;-76
2022/04/06 07:03:17;;;;;;;43.42;18.13;;;8.90;99.90;;;;;;5050055;28;20044;-77
2022/04/06 07:05:44;;;;;;;33.30;16.17;;;8.90;99.90;;;;;;5051866;28;20469;-76
2022/04/06 07:08:11;;;;;;;35.10;17.05;;;9.00;99.90;;;;;;5044881;28;20345;-77
2022/04/06 07:10:37;;;;;;;30.90;16.80;;;9.20;99.90;;;;;;5046011;28;20025;-76
2022/04/06 07:13:03;;;;;;;34.25;17.27;;;9.20;99.90;;;;;;5061188;28;20626;-76
2022/04/06 07:15:29;;;;;;;32.70;17.45;;;9.30;99.90;;;;;;5047589;28;20103;-75
2022/04/06 07:17:56;;;;;;;32.88;18.48;;;9.40;99.90;;;;;;5065778;28;20153;-77
2022/04/06 07:20:25;;;;;;;37.83;17.85;;;9.30;99.90;;;;;;5052129;28;20051;-76
2022/04/06 07:22:51;;;;;;;39.85;16.73;;;9.30;99.90;;;;;;5049036;28;20038;-76
2022/04/06 07:25:17;;;;;;;39.38;18.05;;;9.50;99.90;;;;;;5058121;28;20028;-76
2022/04/06 07:27:43;;;;;;;37.33;18.92;;;9.50;99.90;;;;;;5014315;28;20025;-77
2022/04/06 07:30:11;;;;;;;36.50;18.77;;;9.40;99.90;;;;;;5060934;28;20078;-76
2022/04/06 07:32:37;;;;;;;32.70;17.85;;;9.40;99.90;;;;;;5041977;28;20383;-76
2022/04/06 07:35:04;;;;;;;29.30;16.60;;;9.40;99.90;;;;;;5033064;28;20270;-77
2022/04/06 07:37:50;;;;;;;36.85;18.05;;;9.40;99.90;;;;;;5049288;28;20020;-76
2022/04/06 07:40:18;;;;;;;27.58;17.05;;;9.40;99.90;;;;;;5054149;28;20513;-76
2022/04/06 07:42:44;;;;;;;30.77;16.60;;;9.40;99.90;;;;;;5050708;28;20079;-74
2022/04/06 07:45:18;;;;;;;34.88;17.45;;;9.40;99.90;;;;;;5076158;28;20116;-76
2022/04/06 07:47:46;;;;;;;26.98;17.10;;;9.30;99.90;;;;;;5046562;28;20028;-76
2022/04/06 07:50:13;;;;;;;35.83;18.98;;;9.40;99.90;;;;;;5033137;28;20048;-77
2022/04/06 07:52:40;;;;;;;33.35;18.08;;;9.40;99.90;;;;;;5055276;28;20039;-76
2022/04/06 07:55:07;;;;;;;35.83;18.70;;;9.40;99.90;;;;;;5055178;28;20099;-77
2022/04/06 07:57:34;;;;;;;30.65;17.98;;;9.40;99.90;;;;;;5040315;28;20659;-76
2022/04/06 08:00:05;;;;;;;38.75;18.90;;;9.30;99.90;;;;;;5060099;28;20504;-76
2022/04/06 08:02:31;;;;;;;;;;;9.30;99.90;;;;;;5056571;28;20023;-77
2022/04/06 08:04:57;;;;;;;31.50;17.45;;;9.30;99.90;;;;;;5065321;28;20007;-76
2022/04/06 08:07:24;;;;;;;30.98;18.38;;;9.40;99.90;;;;;;5059074;28;20107;-76
2022/04/06 08:09:51;;;;;;;34.90;17.88;;;9.40;99.90;;;;;;5053667;28;20124;-77
2022/04/06 08:12:17;;;;;;;32.20;18.45;;;9.40;99.90;;;;;;5064997;28;20024;-76
2022/04/06 08:14:43;;;;;;;30.38;18.60;;;9.50;99.90;;;;;;5058031;28;20515;-77
2022/04/06 08:17:08;;;;;;;34.28;19.02;;;9.50;99.90;;;;;;5021377;28;20058;-76
2022/04/06 08:19:34;;;;;;;32.50;19.23;;;9.50;99.90;;;;;;5043125;28;20381;-75
2022/04/06 08:22:00;;;;;;;35.00;18.20;;;9.40;99.90;;;;;;5061134;28;20118;-76
2022/04/06 08:24:27;;;;;;;37.92;19.70;;;9.50;99.90;;;;;;5065303;28;20025;-76
2022/04/06 08:26:53;;;;;;;33.75;18.80;;;9.40;99.90;;;;;;5047652;28;20017;-78
2022/04/06 08:29:19;;;;;;;33.63;17.80;;;9.40;99.90;;;;;;5038582;28;20027;-77
2022/04/06 08:31:45;;;;;;;33.35;17.42;;;9.50;99.90;;;;;;5037843;28;20458;-76
2022/04/06 08:34:11;;;;;;;31.30;17.90;;;9.50;99.90;;;;;;5046721;28;20158;-76
2022/04/06 08:36:37;;;;;;;30.33;17.55;;;9.50;99.90;;;;;;5048670;28;20496;-76
2022/04/06 08:39:03;;;;;;;32.65;16.35;;;9.70;99.90;;;;;;5039464;28;20032;-76
2022/04/06 08:41:30;;;;;;;33.10;17.48;;;9.60;99.90;;;;;;5054426;28;20078;-76
2022/04/06 08:43:57;;;;;;;28.88;16.70;;;9.60;99.90;;;;;;5064985;28;20111;-77
2022/04/06 08:46:23;;;;;;;28.63;15.50;;;9.50;99.90;;;;;;5047758;28;20035;-76
2022/04/06 08:48:51;;;;;;;28.55;16.38;;;9.60;99.90;;;;;;5014852;28;20016;-76
2022/04/06 08:51:18;;;;;;;26.10;15.80;;;9.60;99.90;;;;;;5076472;28;20078;-76
2022/04/06 08:53:48;;;;;;;22.70;14.80;;;9.60;99.90;;;;;;5056274;28;20176;-76
2022/04/06 08:56:15;;;;;;;25.30;15.75;;;9.60;99.90;;;;;;5083718;28;20028;-76
2022/04/06 08:58:44;;;;;;;27.50;16.20;;;9.70;99.90;;;;;;5050358;28;20028;-76
2022/04/06 09:01:12;;;;;;;30.95;15.07;;;9.70;99.90;;;;;;5061286;28;20032;-76
2022/04/06 09:03:38;;;;;;;25.52;14.40;;;9.70;99.90;;;;;;5066297;28;20054;-77
2022/04/06 09:06:09;;;;;;;23.58;13.80;;;9.70;99.90;;;;;;5059136;28;20519;-77
2022/04/06 09:08:46;;;;;;;23.65;14.20;;;9.80;99.90;;;;;;5059235;28;20094;-77
2022/04/06 09:11:22;;;;;;;25.48;12.80;;;9.70;99.90;;;;;;5058226;28;20078;-75
2022/04/06 09:13:56;;;;;;;25.50;12.80;;;9.80;99.90;;;;;;5050334;28;20507;-75
2022/04/06 09:16:27;;;;;;;23.17;12.30;;;9.70;99.90;;;;;;5058817;28;20039;-76
2022/04/06 09:18:54;;;;;;;20.55;12.77;;;9.80;99.90;;;;;;5034555;28;20337;-75
2022/04/06 09:21:19;;;;;;;25.70;12.82;;;9.70;99.90;;;;;;5054618;28;20112;-76
2022/04/06 09:23:49;;;;;;;26.08;11.82;;;9.80;99.90;;;;;;5065174;28;20659;-76
2022/04/06 09:26:20;;;;;;;22.80;12.80;;;9.80;99.90;;;;;;5052998;28;20032;-77
2022/04/06 09:28:47;;;;;;;20.63;11.75;;;9.80;99.90;;;;;;5060851;28;20025;-77
2022/04/06 09:31:17;;;;;;;22.20;10.95;;;9.90;99.90;;;;;;5076444;28;20090;-77
2022/04/06 09:33:56;;;;;;;20.77;11.90;;;9.90;99.90;;;;;;5070833;28;20073;-76
2022/04/06 09:36:21;;;;;;;20.52;10.63;;;9.90;99.90;;;;;;5068466;28;20082;-77
2022/04/06 09:38:49;;;;;;;15.52;11.07;;;9.80;99.90;;;;;;5067866;28;20048;-77
2022/04/06 09:41:16;;;;;;;15.40;9.80;;;9.90;99.90;;;;;;5065581;28;20086;-76
2022/04/06 09:43:45;;;;;;;15.15;10.43;;;10.10;99.90;;;;;;5053678;28;20405;-77
2022/04/06 09:49:18;;;;;;;13.48;9.65;;;9.90;99.90;;;;;;5060564;28;20025;-75
2022/04/06 09:51:51;;;;;;;15.45;9.88;;;10.00;99.90;;;;;;5045502;28;20445;-77
2022/04/06 09:54:17;;;;;;;17.98;10.30;;;9.90;99.90;;;;;;5058027;28;20151;-77
2022/04/06 09:56:44;;;;;;;19.77;9.07;;;9.90;99.90;;;;;;5046382;28;20553;-77
2022/04/06 09:59:13;;;;;;;15.23;8.85;;;10.00;99.90;;;;;;5047871;28;20029;-77
2022/04/06 10:01:47;;;;;;;12.82;8.63;;;10.10;99.90;;;;;;5066580;28;20401;-77
2022/04/06 10:04:17;;;;;;;15.23;9.35;;;9.90;99.90;;;;;;5044408;28;20021;-76
2022/04/06 10:06:43;;;;;;;18.10;9.65;;;9.90;99.90;;;;;;5040812;28;20028;-76
2022/04/06 10:09:14;;;;;;;16.05;9.48;;;9.80;99.90;;;;;;5068173;28;20062;-77
2022/04/06 10:11:41;;;;;;;14.75;8.75;;;9.80;99.90;;;;;;5065932;28;20047;-77
2022/04/06 10:14:09;;;;;;;14.73;8.60;;;9.80;99.90;;;;;;5036944;28;20033;-77
2022/04/06 10:16:36;;;;;;;16.27;8.07;;;9.70;99.90;;;;;;5083714;28;20043;-76
2022/04/06 10:19:05;;;;;;;12.10;8.00;;;9.70;99.90;;;;;;5025849;28;20383;-76
2022/04/06 10:21:53;;;;;;;15.60;8.90;;;9.70;99.90;;;;;;5080684;28;20036;-78
2022/04/06 10:24:22;;;;;;;14.45;8.70;;;9.70;99.90;;;;;;5084881;28;20364;-77
2022/04/06 10:27:11;;;;;;;10.52;7.80;;;9.80;99.90;;;;;;5065750;28;20036;-77
2022/04/06 10:30:15;;;;;;;14.43;8.93;;;9.80;99.90;;;;;;5064060;28;20029;-77
2022/04/06 10:32:46;;;;;;;12.90;7.97;;;9.90;99.90;;;;;;5067063;28;20060;-77
2022/04/06 10:35:44;;;;;;;14.98;8.40;;;9.90;99.90;;;;;;5064400;28;20044;-77
2022/04/06 10:38:09;;;;;;;15.98;8.73;;;9.90;99.90;;;;;;5017186;28;20460;-77
2022/04/06 10:40:44;;;;;;;18.40;8.55;;;10.00;99.90;;;;;;5002285;28;20046;-77
2022/04/06 10:43:34;;;;;;;14.13;9.10;;;9.90;99.90;;;;;;5017965;28;20042;-76
2022/04/06 10:46:00;;;;;;;17.60;9.88;;;9.80;99.90;;;;;;5017462;28;20029;-77
2022/04/06 10:48:27;;;;;;;19.98;9.20;;;9.80;99.90;;;;;;5000772;28;20557;-76
2022/04/06 10:51:13;;;;;;;22.15;9.73;;;9.80;99.90;;;;;;4999542;28;20500;-76
2022/04/06 10:53:38;;;;;;;19.90;11.10;;;9.70;99.90;;;;;;4981179;28;20099;-76
2022/04/06 10:56:06;;;;;;;21.40;10.25;;;9.70;99.90;;;;;;5017117;28;20429;-77
2022/04/06 10:58:53;;;;;;;18.75;10.32;;;9.80;99.90;;;;;;5001007;28;20030;-77
2022/04/06 11:01:26;;;;;;;16.52;9.57;;;9.70;99.90;;;;;;5016590;28;20069;-77
2022/04/06 11:04:05;;;;;;;15.32;9.50;;;9.70;99.90;;;;;;5019660;28;20030;-77
2022/04/06 11:06:48;;;;;;;16.58;9.65;;;9.70;99.90;;;;;;5020074;28;20072;-76
2022/04/06 11:12:26;;;;;;;15.18;9.32;;;9.70;99.90;;;;;;5017171;28;20478;-75
2022/04/06 11:14:59;;;;;;;14.27;9.23;;;9.70;99.90;;;;;;5007703;28;20518;-77
2022/04/06 11:17:44;;;;;;;14.45;8.98;;;9.80;99.90;;;;;;5046732;28;20024;-75
2022/04/06 11:20:28;;;;;;;11.82;8.63;;;9.90;99.90;;;;;;5077471;28;20033;-77
2022/04/06 11:22:55;;;;;;;11.27;8.65;;;10.00;99.90;;;;;;5033460;28;20029;-76
2022/04/06 11:25:24;;;;;;;14.15;9.23;;;9.90;99.90;;;;;;5056365;28;20082;-77
2022/04/06 11:27:50;;;;;;;19.83;10.23;;;9.90;99.90;;;;;;5057500;28;20025;-76
2022/04/06 11:30:22;;;;;;;16.10;8.82;;;9.80;99.90;;;;;;5084105;28;20066;-77
2022/04/06 11:32:55;;;;;;;17.92;9.82;;;9.90;99.90;;;;;;5051678;28;20048;-76
2022/04/06 11:35:28;;;;;;;14.18;8.57;;;9.90;99.90;;;;;;5069434;28;20540;-77
2022/04/06 11:37:54;;;;;;;14.73;9.57;;;10.00;99.90;;;;;;5051284;28;20500;-76
2022/04/06 11:40:25;;;;;;;17.15;10.27;;;10.00;99.90;;;;;;5060033;28;20031;-76
2022/04/06 11:42:52;;;;;;;;;;;10.00;99.90;;;;;;5063678;28;20455;-76
2022/04/06 11:45:26;;;;;;;17.98;8.93;;;10.10;99.90;;;;;;5032766;28;19958;-77
2022/04/06 11:48:06;;;;;;;14.70;8.63;;;10.00;99.90;;;;;;5068999;28;20035;-76
2022/04/06 11:50:34;;;;;;;15.68;8.95;;;10.20;99.90;;;;;;5069930;28;20100;-75
2022/04/06 11:53:06;;;;;;;62.92;35.55;;;10.20;99.90;;;;;;5042658;28;20024;-77
2022/04/06 11:56:00;;;;;;;;;;;10.30;99.90;;;;;;5048253;28;20524;-76
2022/04/06 11:58:37;;;;;;;61.58;32.83;;;10.30;99.90;;;;;;5053361;28;19922;-76
2022/04/06 12:01:05;;;;;;;17.15;10.00;;;10.30;99.90;;;;;;5075358;28;20404;-78
2022/04/06 12:03:37;;;;;;;14.88;9.40;;;10.20;99.90;;;;;;5066187;28;20029;-77
2022/04/06 12:06:03;;;;;;;;;;;10.30;99.90;;;;;;5070530;28;20020;-76
2022/04/06 12:08:31;;;;;;;18.48;9.30;;;10.30;99.90;;;;;;5060705;28;20065;-77
2022/04/06 12:10:57;;;;;;;20.33;10.45;;;10.30;99.90;;;;;;5051516;28;20103;-76
2022/04/06 12:13:27;;;;;;;21.60;9.35;;;10.20;99.90;;;;;;5047893;28;20028;-76
2022/04/06 12:15:55;;;;;;;17.48;10.10;;;10.30;99.90;;;;;;5026966;28;20124;-76
2022/04/06 12:18:23;;;;;;;22.38;10.45;;;10.20;99.90;;;;;;5049739;28;20039;-77
2022/04/06 12:20:50;;;;;;;20.27;10.30;;;10.20;99.90;;;;;;5043145;28;20052;-75
2022/04/06 12:23:18;;;;;;;18.20;10.15;;;10.10;99.90;;;;;;5046648;28;20750;-77
2022/04/06 12:25:44;;;;;;;17.48;9.30;;;10.10;99.90;;;;;;5070473;28;20067;-77
2022/04/06 12:28:25;;;;;;;20.00;10.45;;;10.00;99.90;;;;;;5049138;28;20021;-77
2022/04/06 12:30:57;;;;;;;19.27;11.10;;;10.00;99.90;;;;;;5050014;28;20032;-76
2022/04/06 12:33:45;;;;;;;15.88;10.50;;;10.00;99.90;;;;;;5048608;28;20065;-75
2022/04/06 12:36:19;;;;;;;18.13;10.50;;;10.00;99.90;;;;;;5067506;28;20016;-76
2022/04/06 12:39:14;;;;;;;23.40;11.95;;;10.00;99.90;;;;;;5056855;28;20499;-77
2022/04/06 12:42:01;;;;;;;16.63;10.30;;;10.20;99.90;;;;;;5058123;28;20029;-76
2022/04/06 12:44:32;;;;;;;17.80;10.32;;;10.30;99.90;;;;;;5052289;28;20021;-76
2022/04/06 12:46:59;;;;;;;21.58;11.35;;;10.30;99.90;;;;;;5070196;28;20027;-77
2022/04/06 12:49:24;;;;;;;19.25;11.02;;;10.30;99.90;;;;;;5053620;28;20558;-77
2022/04/06 12:52:15;;;;;;;19.20;11.40;;;10.40;99.90;;;;;;5051397;28;20025;-77
2022/04/06 12:54:49;;;;;;;18.60;10.87;;;10.50;99.90;;;;;;5055154;28;20027;-78